Durand, IL (61024)

5:21 PM CST on February 09, 2016 (GMT -0600)
Hawkeye Observatory | | Change Station
CLOSE
Current Station
Personal Weather Station
Location: Durand, IL
Elevation: 758 ft
Nearby Weather Stations

Elev 758 ft 42.44 °N, 89.33 °W | Updated 57 seconds ago

Overcast
Overcast
14.3 °F
Feels Like 1 °F
N
12.0
Wind Variable Wind from NW
Gusts 12.0 mph

Today
High -- | Low -- °F
--% Chance of Precip.
Yesterday
High -- | Low -- °F
Precip. -- in
Pressure 29.93 in
Visibility 10.0 miles
Clouds Overcast 4300 ft
Windchill 1 °F
Dew Point 5 °F
Humidity 67%
Rainfall 0.00 in
Snow Depth Not available.
7:02 AM 5:21 PM
New Moon, 3% visible
METAR KEFT 092315Z AUTO 31014G19KT 10SM OVC043 M10/M15 A2993 RMK AO2
Pressure 29.93 in
Visibility 10.0 miles
Clouds Overcast 4300 ft
Windchill 1 °F
Dew Point 5 °F
Humidity 67%
Rainfall 0.00 in
Snow Depth Not available.
7:02 AM 5:21 PM
New Moon, 3% visible
METAR KEFT 092315Z AUTO 31014G19KT 10SM OVC043 M10/M15 A2993 RMK AO2

10-Day Weather Forecast

Almanac

Astronomy

Feb. 09, 2016 Rise Set
Actual Time
Civil Twilight
Nautical Twilight
Astronomical Twilight
Moon
Length of Visible Light
Length of Day
Tomorrow will be .
, % of the Moon is Illuminated

Today's Extremes

State Highs State Lows

Community

WunderPhotos

Upload Photos

1,891,744 photos uploaded!

WunderBlog® & News

Nearby

Air Quality

  Air Quality AQ Index Pollutant
Not available.

Snow Depth

Station Depth Elevation

Earthquake Activity

City Distance Mag. Time & Date
Minimum magnitude displayed is 2.5.

Coastal Water Temperatures

Place Temperature

Stations

Nearby Weather Stations

Station Location Temp. Windchill Dew Point Humidity Wind Precip. Elev Updated Type
                   

Watches & Warnings

There are currently no watches in effect.